Wappingers Falls, NY (12590)

10:16 AM EDT on October 31, 2014 (GMT -0400)
Wappingers Falls | Change Station
CLOSE
Current Station
Personal Weather Station
Location: Wappingers Fallls, NY
Elevation: 338 ft
Nearby Weather Stations

Elev 338 ft 41.61 °N, 73.86 °W | Updated 14 seconds ago

Mostly Cloudy
Mostly Cloudy
42.1 °F
Feels Like 42 °F
N
2.7
Wind Variable Wind from North
Gusts 3.8 mph

Today
High -- | Low -- °F
--% Chance of Precip.
Yesterday
High -- | Low -- °F
Precip. -- in
7:26 AM 5:51 PM
First Quarter, 55% visible
Pressure 30.03 in
Visibility 10.0 miles
Clouds Few 300 ft
Mostly Cloudy 5000 ft
Windchill 42 °F
Dew Point 38 °F
Humidity 84%
Rainfall 0.00 in
Snow Depth Not available.
UV 1 out of 12
Pollen .20 out of 12
Air Quality Not available.
Flu Activity Not available.
METAR KPOU 311353Z 00000KT 10SM FEW003 BKN050 04/03 A3003 RMK AO2 SLP167 T00440028

More Conditions Fewer Conditions

Pressure 30.03 in
Visibility 10.0 miles
Clouds Few 300 ft
Mostly Cloudy 5000 ft
Windchill 42 °F
Dew Point 38 °F
Humidity 84%
Rainfall 0.00 in
Snow Depth Not available.
UV 1 out of 12
Pollen .20 out of 12
Air Quality Not available.
Flu Activity Not available.
METAR KPOU 311353Z 00000KT 10SM FEW003 BKN050 04/03 A3003 RMK AO2 SLP167 T00440028

More Conditions Fewer Conditions

10-Day Weather Forecast

Almanac

Astronomy

Oct. 31, 2014 Rise Set
Actual Time
Civil Twilight
Nautical Twilight
Astronomical Twilight
Moon
Length of Visible Light
Length of Day
Tomorrow will be .
, % of the Moon is Illuminated

Today's Extremes

State Highs State Lows

Community

WunderPhotos

Upload Photos

1,766,617 photos uploaded!

WunderBlogs® & News

Nearby

Air Quality

  Air Quality AQ Index Pollutant
Not available.

Snow Depth

Station Depth Elevation

Earthquake Activity

City Distance Mag. Time & Date
Minimum magnitude displayed is 2.5.

Coastal Water Temperatures

Place Temperature

Nearby Weather Stations